Time;durP1;ratioP1;P1;durP2;ratioP2;P2;SDS_P1;SDS_P2;PMS_P1;PMS_P2;Temp;Humidity;BMP_temperature;BMP_pressure;BME280_temperature;BME280_humidity;BME280_pressure;Samples;Min_cycle;Max_cycle;Signal;HPM_P1;HPM_P2
2020/12/19 00:01:33;;;;;;;4.53;2.83;;;6.80;99.90;;;;;;5008183;28;20226;-89
2020/12/19 00:03:59;;;;;;;2.80;2.33;;;6.80;99.90;;;;;;5024289;28;20359;-88
2020/12/19 00:06:25;;;;;;;3.90;3.33;;;6.80;99.90;;;;;;5019545;28;20226;-90
2020/12/19 00:08:51;;;;;;;8.00;2.97;;;6.80;99.90;;;;;;5042927;28;20312;-89
2020/12/19 00:11:17;;;;;;;3.87;2.83;;;6.80;99.90;;;;;;5026760;28;20316;-89
2020/12/19 00:13:43;;;;;;;3.23;2.93;;;6.80;99.90;;;;;;5041282;28;20617;-88
2020/12/19 00:16:16;;;;;;;2.73;2.50;;;6.80;99.90;;;;;;5009001;28;20263;-88
2020/12/19 00:18:43;;;;;;;7.00;3.73;;;6.70;99.90;;;;;;5025154;28;20952;-87
2020/12/19 00:21:10;;;;;;;3.03;2.40;;;6.70;99.90;;;;;;5023749;28;20297;-88
2020/12/19 00:23:36;;;;;;;3.53;2.57;;;6.70;99.90;;;;;;5006603;28;20211;-89
2020/12/19 00:26:02;;;;;;;4.03;3.63;;;6.70;99.90;;;;;;5008483;28;20341;-88
2020/12/19 00:28:28;;;;;;;4.10;3.70;;;6.70;99.90;;;;;;5025848;28;20232;-91
2020/12/19 00:30:54;;;;;;;3.90;3.10;;;6.70;99.90;;;;;;5025102;28;21001;-87
2020/12/19 00:33:20;;;;;;;4.30;2.73;;;6.70;99.90;;;;;;5025772;28;20708;-90
2020/12/19 00:35:46;;;;;;;5.63;4.17;;;6.60;99.90;;;;;;5024977;28;20198;-88
2020/12/19 00:38:11;;;;;;;4.43;2.90;;;6.60;99.90;;;;;;5020845;28;20196;-89
2020/12/19 00:40:37;;;;;;;3.17;2.37;;;6.60;99.90;;;;;;5007974;28;20333;-88
2020/12/19 00:43:03;;;;;;;4.33;3.30;;;6.50;99.90;;;;;;5022507;28;21253;-88
2020/12/19 00:45:29;;;;;;;4.23;2.67;;;6.50;99.90;;;;;;5023511;28;20237;-89
2020/12/19 00:47:55;;;;;;;2.23;1.47;;;6.50;99.90;;;;;;5041074;28;20500;-89
2020/12/19 00:50:21;;;;;;;3.17;2.87;;;6.50;99.90;;;;;;5010251;28;21016;-89
2020/12/19 00:52:47;;;;;;;3.10;2.37;;;6.40;99.90;;;;;;5025437;28;20264;-90
2020/12/19 00:55:12;;;;;;;4.37;3.27;;;6.40;99.90;;;;;;5017835;28;20218;-90
2020/12/19 00:57:38;;;;;;;2.40;2.30;;;6.40;99.90;;;;;;5009157;28;20237;-90
2020/12/19 01:00:09;;;;;;;1.93;1.80;;;6.50;99.90;;;;;;5019215;28;20222;-91
2020/12/19 01:02:38;;;;;;;2.33;2.20;;;6.50;99.90;;;;;;5026584;28;20643;-88
2020/12/19 01:05:09;;;;;;;5.00;1.73;;;6.50;99.90;;;;;;5024846;28;20225;-88
2020/12/19 01:07:39;;;;;;;1.93;1.60;;;6.50;99.90;;;;;;5024116;28;20226;-89
2020/12/19 01:10:08;;;;;;;3.17;2.87;;;6.50;99.90;;;;;;5024623;28;21314;-89
2020/12/19 01:12:34;;;;;;;3.53;2.00;;;6.50;99.90;;;;;;5025157;28;20318;-89
2020/12/19 01:14:59;;;;;;;5.40;3.60;;;6.50;99.90;;;;;;5023905;28;20238;-88
2020/12/19 01:17:26;;;;;;;7.40;4.43;;;6.50;99.90;;;;;;5025475;28;20300;-88
2020/12/19 01:19:51;;;;;;;4.13;2.90;;;6.50;99.90;;;;;;5008385;28;20209;-89
2020/12/19 01:22:17;;;;;;;4.47;4.07;;;6.40;99.90;;;;;;5023330;28;20929;-89
2020/12/19 01:24:43;;;;;;;4.90;4.13;;;6.50;99.90;;;;;;5024589;28;20781;-88
2020/12/19 01:27:08;;;;;;;2.20;1.57;;;6.50;99.90;;;;;;5008010;28;20222;-89
2020/12/19 01:29:34;;;;;;;3.73;3.10;;;6.50;99.90;;;;;;5042639;28;20665;-90
2020/12/19 01:32:00;;;;;;;3.70;2.70;;;6.50;99.90;;;;;;5040159;28;20275;-89
2020/12/19 01:34:26;;;;;;;3.73;3.43;;;6.50;99.90;;;;;;4994795;28;20328;-89
2020/12/19 01:36:52;;;;;;;5.53;4.40;;;6.50;99.90;;;;;;5041197;28;20229;-88
2020/12/19 01:39:18;;;;;;;4.50;3.00;;;6.50;99.90;;;;;;5024344;28;20308;-88
2020/12/19 01:41:43;;;;;;;6.83;4.20;;;6.50;99.90;;;;;;5022828;28;20194;-89
2020/12/19 01:44:09;;;;;;;4.97;4.47;;;6.50;99.90;;;;;;5023644;28;20237;-88
2020/12/19 01:46:54;;;;;;;6.20;3.73;;;6.50;99.90;;;;;;5040929;28;20462;-89
2020/12/19 01:49:24;;;;;;;4.47;3.43;;;6.50;99.90;;;;;;5040638;28;20222;-88
2020/12/19 01:51:52;;;;;;;6.57;4.50;;;6.50;99.90;;;;;;5023572;28;20225;-89
2020/12/19 01:54:20;;;;;;;8.57;3.80;;;6.50;99.90;;;;;;5023418;28;20249;-88
2020/12/19 01:56:54;;;;;;;2.87;2.07;;;6.50;99.90;;;;;;5023144;28;20190;-89
2020/12/19 01:59:21;;;;;;;8.13;3.43;;;6.60;99.90;;;;;;5041483;28;20688;-89
2020/12/19 02:01:56;;;;;;;3.33;3.13;;;6.60;99.90;;;;;;5022984;28;20202;-88
2020/12/19 02:04:24;;;;;;;6.30;3.67;;;6.60;99.90;;;;;;5023640;28;20217;-89
2020/12/19 02:06:52;;;;;;;4.07;2.83;;;6.60;99.90;;;;;;5013871;28;20635;-91
2020/12/19 02:09:20;;;;;;;8.97;4.37;;;6.60;99.90;;;;;;5023435;28;20333;-89
2020/12/19 02:11:47;;;;;;;6.10;3.87;;;6.60;99.90;;;;;;5023961;28;20186;-89
2020/12/19 02:14:13;;;;;;;5.53;4.10;;;6.60;99.90;;;;;;5042840;28;20193;-90
2020/12/19 02:16:51;;;;;;;4.70;3.33;;;6.70;99.90;;;;;;5022744;28;20225;-91
2020/12/19 02:19:17;;;;;;;4.83;4.43;;;6.70;99.90;;;;;;5022360;28;20210;-89
2020/12/19 02:21:43;;;;;;;5.73;4.23;;;6.60;99.90;;;;;;5037082;28;20295;-89
2020/12/19 02:24:09;;;;;;;4.80;3.47;;;6.60;99.90;;;;;;5038819;28;20237;-90
2020/12/19 02:26:35;;;;;;;6.23;4.30;;;6.60;99.90;;;;;;5023489;28;20217;-90
2020/12/19 02:29:01;;;;;;;6.60;4.53;;;6.60;99.90;;;;;;5021436;28;20221;-88
2020/12/19 02:31:27;;;;;;;4.53;4.13;;;6.70;99.90;;;;;;5023134;28;21083;-90
2020/12/19 02:33:52;;;;;;;6.17;3.53;;;6.70;99.90;;;;;;5038119;28;20225;-91
2020/12/19 02:36:18;;;;;;;7.40;5.17;;;6.60;99.90;;;;;;5020480;28;20272;-90
2020/12/19 02:38:44;;;;;;;6.30;4.90;;;6.70;99.90;;;;;;5014445;28;21186;-89
2020/12/19 02:41:09;;;;;;;5.03;2.53;;;6.60;99.90;;;;;;5005235;28;20187;-91
2020/12/19 02:43:35;;;;;;;3.10;2.67;;;6.60;99.90;;;;;;5021927;28;20225;-90
2020/12/19 02:46:01;;;;;;;6.93;4.57;;;6.60;99.90;;;;;;5013879;28;20230;-89
2020/12/19 02:48:27;;;;;;;4.50;3.47;;;6.60;99.90;;;;;;5006719;28;21117;-90
2020/12/19 02:50:53;;;;;;;7.07;4.07;;;6.60;99.90;;;;;;5023266;28;20190;-90
2020/12/19 02:53:18;;;;;;;6.07;5.23;;;6.60;99.90;;;;;;5018425;28;20194;-89
2020/12/19 02:55:44;;;;;;;3.07;2.60;;;6.50;99.90;;;;;;5023153;28;20686;-89
2020/12/19 02:58:10;;;;;;;6.43;5.17;;;6.60;99.90;;;;;;5038755;28;20252;-89
2020/12/19 03:00:36;;;;;;;4.47;3.70;;;6.50;99.90;;;;;;5020733;28;20263;-88
2020/12/19 03:03:01;;;;;;;8.00;6.10;;;6.50;99.90;;;;;;5005671;28;20260;-89
2020/12/19 03:05:27;;;;;;;5.33;4.83;;;6.40;99.90;;;;;;5020468;28;20625;-88
2020/12/19 03:07:53;;;;;;;9.07;5.80;;;6.50;99.90;;;;;;5016047;28;21514;-89
2020/12/19 03:10:19;;;;;;;9.63;4.90;;;6.50;99.90;;;;;;5022425;28;20332;-89
2020/12/19 03:12:45;;;;;;;8.47;4.90;;;6.40;99.90;;;;;;5006163;28;20222;-89
2020/12/19 03:15:10;;;;;;;8.57;5.30;;;6.40;99.90;;;;;;5018449;28;20764;-89
2020/12/19 03:17:37;;;;;;;7.70;5.23;;;6.50;99.90;;;;;;5007376;28;20197;-89
2020/12/19 03:20:03;;;;;;;5.43;3.87;;;6.50;99.90;;;;;;5021959;28;20690;-89
2020/12/19 03:22:29;;;;;;;10.47;6.53;;;6.50;99.90;;;;;;5038975;28;20223;-88
2020/12/19 03:24:55;;;;;;;8.90;4.07;;;6.50;99.90;;;;;;5015080;28;20715;-90
2020/12/19 03:27:21;;;;;;;4.03;3.67;;;6.50;99.90;;;;;;5005676;28;20679;-89
2020/12/19 03:29:47;;;;;;;10.33;6.30;;;6.50;99.90;;;;;;5021073;28;20205;-89
2020/12/19 03:32:14;;;;;;;12.00;4.67;;;6.50;99.90;;;;;;5017538;28;20324;-89
2020/12/19 03:34:43;;;;;;;2.33;2.20;;;6.40;99.90;;;;;;5016979;28;20218;-90
2020/12/19 03:37:08;;;;;;;4.93;3.33;;;6.40;99.90;;;;;;5000923;28;20254;-90
2020/12/19 03:39:34;;;;;;;4.50;2.53;;;6.40;99.90;;;;;;4995132;28;20430;-90
2020/12/19 03:42:00;;;;;;;3.83;3.43;;;6.50;99.90;;;;;;5002085;28;20694;-87
2020/12/19 03:44:25;;;;;;;3.70;2.83;;;6.40;99.90;;;;;;5018712;28;20190;-88
2020/12/19 03:46:51;;;;;;;11.30;4.87;;;6.40;99.90;;;;;;5000185;28;20585;-90
2020/12/19 03:49:17;;;;;;;6.93;4.20;;;6.40;99.90;;;;;;5000948;28;20252;-89
2020/12/19 03:51:43;;;;;;;7.67;6.13;;;6.50;99.90;;;;;;5015640;28;20744;-90
2020/12/19 03:54:08;;;;;;;7.33;5.43;;;6.40;99.90;;;;;;5034981;28;20221;-87
2020/12/19 03:56:34;;;;;;;9.17;3.90;;;6.50;99.90;;;;;;5018229;28;20190;-89
2020/12/19 03:59:00;;;;;;;9.53;5.93;;;6.50;99.90;;;;;;5016331;28;20224;-88
2020/12/19 04:01:25;;;;;;;5.83;3.87;;;6.50;99.90;;;;;;5040805;28;20244;-89
2020/12/19 04:03:51;;;;;;;7.97;5.47;;;6.50;99.90;;;;;;5031459;28;21075;-90
2020/12/19 04:06:17;;;;;;;3.37;3.03;;;6.50;99.90;;;;;;4990200;28;20271;-87
2020/12/19 04:08:43;;;;;;;9.03;5.10;;;6.50;99.90;;;;;;5019621;28;20495;-89
2020/12/19 04:11:08;;;;;;;4.00;3.17;;;6.50;99.90;;;;;;4980702;28;20607;-89
2020/12/19 04:13:34;;;;;;;7.27;4.77;;;6.50;99.90;;;;;;5006790;28;20248;-89
2020/12/19 04:16:00;;;;;;;7.87;5.93;;;6.60;99.90;;;;;;5016558;28;20229;-90
2020/12/19 04:18:26;;;;;;;6.03;4.60;;;6.60;99.90;;;;;;5019906;28;20230;-88
2020/12/19 04:20:52;;;;;;;8.10;5.40;;;6.60;99.90;;;;;;5016263;28;20183;-89
2020/12/19 04:23:18;;;;;;;7.70;3.37;;;6.50;99.90;;;;;;5039341;28;20261;-88
2020/12/19 04:25:44;;;;;;;8.97;4.80;;;6.50;99.90;;;;;;5022377;28;20316;-88
2020/12/19 04:28:09;;;;;;;8.90;5.30;;;6.50;99.90;;;;;;4980687;28;20214;-89
2020/12/19 04:30:35;;;;;;;7.67;4.00;;;6.60;99.90;;;;;;4989989;28;20232;-88
2020/12/19 04:33:01;;;;;;;6.60;5.63;;;6.50;99.90;;;;;;5038825;28;20458;-89
2020/12/19 04:35:27;;;;;;;8.30;4.37;;;6.50;99.90;;;;;;5043392;28;20194;-89
2020/12/19 04:37:52;;;;;;;5.10;3.63;;;6.50;99.90;;;;;;5024709;28;20698;-89
2020/12/19 04:40:18;;;;;;;7.40;5.80;;;6.60;99.90;;;;;;5001100;28;20214;-89
2020/12/19 04:42:44;;;;;;;9.50;3.43;;;6.60;99.90;;;;;;5026213;28;21016;-89
2020/12/19 04:45:10;;;;;;;6.03;4.93;;;6.60;99.90;;;;;;5039508;28;20240;-90
2020/12/19 04:47:36;;;;;;;9.90;4.80;;;6.50;99.90;;;;;;5010293;28;20658;-88
2020/12/19 04:50:03;;;;;;;5.63;4.30;;;6.50;99.90;;;;;;5025320;28;20218;-88
2020/12/19 04:52:29;;;;;;;4.73;4.13;;;6.60;99.90;;;;;;4995941;28;20730;-88
2020/12/19 04:54:55;;;;;;;2.90;2.37;;;6.50;99.90;;;;;;4996005;28;20703;-87
2020/12/19 04:57:21;;;;;;;7.97;4.53;;;6.60;99.90;;;;;;5014398;28;20218;-89
2020/12/19 04:59:48;;;;;;;6.13;4.57;;;6.60;99.90;;;;;;5025501;28;20178;-89
2020/12/19 05:02:14;;;;;;;7.67;4.30;;;6.50;99.90;;;;;;5019688;28;20195;-89
2020/12/19 05:04:41;;;;;;;7.07;4.83;;;6.60;99.90;;;;;;5025501;28;20225;-89
2020/12/19 05:07:10;;;;;;;4.87;3.17;;;6.50;99.90;;;;;;5042263;28;20241;-89
2020/12/19 05:09:41;;;;;;;6.10;4.37;;;6.50;99.90;;;;;;5025458;28;20236;-89
2020/12/19 05:12:08;;;;;;;13.87;5.73;;;6.50;99.90;;;;;;5025762;28;20305;-89
2020/12/19 05:14:34;;;;;;;6.93;5.03;;;6.50;99.90;;;;;;5026973;28;20714;-88
2020/12/19 05:17:00;;;;;;;8.43;5.13;;;6.50;99.90;;;;;;5042104;28;20252;-89
2020/12/19 05:19:30;;;;;;;5.07;3.63;;;6.50;99.90;;;;;;5041932;28;20565;-89
2020/12/19 05:21:57;;;;;;;6.07;4.83;;;6.50;99.90;;;;;;5019829;28;20336;-88
2020/12/19 05:24:29;;;;;;;5.90;3.97;;;6.50;99.90;;;;;;5041493;28;20214;-89
2020/12/19 05:26:55;;;;;;;4.63;3.23;;;6.40;99.90;;;;;;5025038;28;20224;-88
2020/12/19 05:29:21;;;;;;;4.57;4.03;;;6.40;99.90;;;;;;5018732;28;20186;-88
2020/12/19 05:31:58;;;;;;;4.03;2.27;;;6.40;99.90;;;;;;5024836;28;20214;-89
2020/12/19 05:34:25;;;;;;;5.63;5.13;;;6.50;99.90;;;;;;5042378;28;20226;-88
2020/12/19 05:36:52;;;;;;;4.17;2.90;;;6.50;99.90;;;;;;5040743;28;20221;-89
2020/12/19 05:39:18;;;;;;;6.40;4.30;;;6.60;99.90;;;;;;5023842;28;20218;-90
2020/12/19 05:41:45;;;;;;;4.00;3.33;;;6.50;99.90;;;;;;5024575;28;20190;-89
2020/12/19 05:44:12;;;;;;;12.73;5.37;;;6.50;99.90;;;;;;5016450;28;20243;-88
2020/12/19 05:46:41;;;;;;;5.23;2.83;;;6.60;99.90;;;;;;5020035;28;20260;-89
2020/12/19 05:49:09;;;;;;;5.27;4.30;;;6.50;99.90;;;;;;5024106;28;20221;-89
2020/12/19 05:51:37;;;;;;;8.10;4.87;;;6.60;99.90;;;;;;5041568;28;20210;-89
2020/12/19 05:54:03;;;;;;;5.17;4.13;;;6.60;99.90;;;;;;5042023;28;20308;-89
2020/12/19 05:56:34;;;;;;;4.97;4.47;;;6.60;99.90;;;;;;5043989;28;20209;-88
2020/12/19 05:59:02;;;;;;;5.27;3.67;;;6.60;99.90;;;;;;5024236;28;20218;-89
2020/12/19 06:01:28;;;;;;;6.27;3.90;;;6.60;99.90;;;;;;5024820;28;20804;-88
2020/12/19 06:03:55;;;;;;;4.13;3.20;;;6.60;99.90;;;;;;5017301;28;20276;-89
2020/12/19 06:06:23;;;;;;;8.47;5.53;;;6.60;99.90;;;;;;5023693;28;20344;-89
2020/12/19 06:08:49;;;;;;;6.73;5.60;;;6.60;99.90;;;;;;5023598;28;20222;-89
2020/12/19 06:11:21;;;;;;;4.07;3.60;;;6.60;99.90;;;;;;5042219;28;20189;-88
2020/12/19 06:13:51;;;;;;;9.50;4.97;;;6.60;99.90;;;;;;5024210;28;20210;-89
2020/12/19 06:16:17;;;;;;;6.87;3.50;;;6.60;99.90;;;;;;5023688;28;20214;-88
2020/12/19 06:18:52;;;;;;;4.23;3.30;;;6.70;99.90;;;;;;5022659;28;20217;-90
2020/12/19 06:21:19;;;;;;;4.30;3.60;;;6.70;99.90;;;;;;5023742;28;20300;-89
2020/12/19 06:23:44;;;;;;;7.63;4.63;;;6.70;99.90;;;;;;5023222;28;20205;-89
2020/12/19 06:26:12;;;;;;;3.03;2.70;;;6.80;99.90;;;;;;5008803;28;20209;-89
2020/12/19 06:28:40;;;;;;;4.63;3.93;;;6.70;99.90;;;;;;5032248;28;20271;-89
2020/12/19 06:31:08;;;;;;;7.30;6.60;;;6.70;99.90;;;;;;5040319;28;20217;-88
2020/12/19 06:33:35;;;;;;;7.43;4.83;;;6.70;99.90;;;;;;5040815;28;20226;-88
2020/12/19 06:36:04;;;;;;;8.00;5.37;;;6.80;99.90;;;;;;5006316;28;20233;-87
2020/12/19 06:38:40;;;;;;;5.87;3.03;;;6.80;99.90;;;;;;5042580;28;21092;-89
2020/12/19 06:41:06;;;;;;;7.23;3.80;;;6.80;99.90;;;;;;5038784;28;20221;-88
2020/12/19 06:43:32;;;;;;;7.70;4.20;;;6.90;99.90;;;;;;5006156;28;20310;-87
2020/12/19 06:45:58;;;;;;;4.60;3.63;;;6.80;99.90;;;;;;5018125;28;21188;-86
2020/12/19 06:48:34;;;;;;;4.07;3.77;;;6.80;99.90;;;;;;5015801;28;20224;-87
2020/12/19 06:51:01;;;;;;;3.53;3.23;;;6.80;99.90;;;;;;5020783;28;20179;-86
2020/12/19 06:53:28;;;;;;;5.00;3.43;;;6.80;99.90;;;;;;5024388;28;20185;-86
2020/12/19 06:55:54;;;;;;;4.43;2.50;;;6.90;99.90;;;;;;5024186;28;20240;-88
2020/12/19 06:58:32;;;;;;;3.93;2.63;;;6.90;99.90;;;;;;5006555;28;20355;-89
2020/12/19 07:00:58;;;;;;;10.00;4.80;;;6.80;99.90;;;;;;5023474;28;20256;-90
2020/12/19 07:03:41;;;;;;;5.07;4.47;;;6.70;99.90;;;;;;5007926;28;20283;-88
2020/12/19 07:06:12;;;;;;;4.60;3.93;;;6.70;99.90;;;;;;5017322;28;20316;-90
2020/12/19 07:08:37;;;;;;;6.07;4.17;;;6.70;99.90;;;;;;5025219;28;20228;-88
2020/12/19 07:11:04;;;;;;;9.23;4.00;;;6.80;99.90;;;;;;5039353;28;20606;-90
2020/12/19 07:13:50;;;;;;;6.70;2.20;;;6.80;99.90;;;;;;5022137;28;20224;-88
2020/12/19 07:16:44;;;;;;;5.77;4.13;;;6.80;99.90;;;;;;5039764;28;20358;-88
2020/12/19 07:19:25;;;;;;;6.73;4.53;;;6.80;99.90;;;;;;5023334;28;20297;-88
2020/12/19 07:21:56;;;;;;;7.10;3.03;;;6.70;99.90;;;;;;5023571;28;20300;-90
2020/12/19 07:24:22;;;;;;;6.47;3.00;;;6.70;99.90;;;;;;5022227;28;20224;-87
2020/12/19 07:26:50;;;;;;;7.93;4.73;;;6.70;99.90;;;;;;5021857;28;20248;-88
2020/12/19 07:29:21;;;;;;;2.87;2.47;;;6.80;99.90;;;;;;5024095;28;20632;-88
2020/12/19 07:31:52;;;;;;;10.83;4.57;;;6.80;99.90;;;;;;5039876;28;20213;-88
2020/12/19 07:34:19;;;;;;;6.00;2.57;;;6.90;99.90;;;;;;5023094;28;20701;-89
2020/12/19 07:36:46;;;;;;;7.57;5.73;;;7.00;99.90;;;;;;5022588;28;20292;-89
2020/12/19 07:39:13;;;;;;;2.30;1.67;;;7.00;99.90;;;;;;5016405;28;20275;-89
2020/12/19 07:41:40;;;;;;;3.43;2.30;;;7.20;99.90;;;;;;5007895;28;20234;-89
2020/12/19 07:44:14;;;;;;;3.23;3.03;;;7.20;99.90;;;;;;5021591;28;20216;-89
2020/12/19 07:46:57;;;;;;;7.27;4.17;;;7.10;99.90;;;;;;5040299;28;20252;-89
2020/12/19 07:49:27;;;;;;;4.07;3.40;;;7.10;99.90;;;;;;5023808;28;20252;-89
2020/12/19 07:52:11;;;;;;;4.27;2.20;;;7.20;99.90;;;;;;5006155;28;20217;-90
2020/12/19 07:54:38;;;;;;;6.43;5.07;;;7.30;99.90;;;;;;5022236;28;20253;-92
2020/12/19 07:57:04;;;;;;;7.43;6.20;;;7.30;99.90;;;;;;5023313;28;20226;-92
2020/12/19 07:59:31;;;;;;;5.47;4.13;;;7.30;99.90;;;;;;5018515;28;20310;-90
2020/12/19 08:02:02;;;;;;;7.20;4.93;;;7.40;99.90;;;;;;5023970;28;20682;-92
2020/12/19 08:04:29;;;;;;;6.70;3.97;;;7.40;99.90;;;;;;5023005;28;20691;-89
2020/12/19 08:06:55;;;;;;;4.97;4.13;;;7.40;99.90;;;;;;5044955;28;20536;-89
2020/12/19 08:09:21;;;;;;;4.13;3.33;;;7.40;99.90;;;;;;5019005;28;20234;-88
2020/12/19 08:11:49;;;;;;;4.27;3.80;;;7.50;99.90;;;;;;5045372;28;20279;-94
2020/12/19 08:14:18;;;;;;;3.10;2.80;;;7.50;99.90;;;;;;5034093;28;20277;-93
2020/12/19 08:16:45;;;;;;;2.63;2.07;;;7.50;99.90;;;;;;5027749;28;20214;-92
2020/12/19 08:19:30;;;;;;;4.07;2.97;;;7.50;99.90;;;;;;5025160;28;20287;-92
2020/12/19 08:22:01;;;;;;;3.43;2.90;;;7.70;99.90;;;;;;5031628;28;20238;-93
2020/12/19 08:24:28;;;;;;;6.03;3.87;;;7.70;99.90;;;;;;5027209;28;20225;-92
2020/12/19 08:27:31;;;;;;;4.50;3.33;;;7.80;99.90;;;;;;5013509;28;20217;-90
2020/12/19 08:30:11;;;;;;;9.30;5.20;;;7.80;99.90;;;;;;5043655;28;20198;-91
2020/12/19 08:33:03;;;;;;;4.77;4.37;;;7.80;99.90;;;;;;5044532;28;20186;-90
2020/12/19 08:35:32;;;;;;;2.50;2.30;;;7.80;99.90;;;;;;5025637;28;20279;-88
2020/12/19 08:38:04;;;;;;;4.03;3.60;;;7.80;99.90;;;;;;5021377;28;20274;-88
2020/12/19 08:40:35;;;;;;;4.43;3.00;;;7.70;99.90;;;;;;5020782;28;20220;-91
2020/12/19 08:43:01;;;;;;;10.10;6.80;;;7.70;99.90;;;;;;5038827;28;20221;-90
2020/12/19 08:45:35;;;;;;;4.43;3.13;;;7.70;99.90;;;;;;5018830;28;20229;-91
2020/12/19 08:48:17;;;;;;;6.40;4.50;;;7.80;99.90;;;;;;5042528;28;20568;-91
2020/12/19 08:50:43;;;;;;;4.27;2.47;;;7.80;99.90;;;;;;5021883;28;20263;-91
2020/12/19 08:53:22;;;;;;;4.07;3.63;;;7.80;99.90;;;;;;5023968;28;20191;-91
2020/12/19 08:55:49;;;;;;;5.50;4.83;;;7.90;99.90;;;;;;5023148;28;20651;-91
2020/12/19 08:58:23;;;;;;;8.77;5.53;;;7.90;99.90;;;;;;5007898;28;20233;-90
2020/12/19 09:00:50;;;;;;;5.60;3.83;;;7.90;99.90;;;;;;5025666;28;20226;-91
2020/12/19 09:03:26;;;;;;;6.07;4.77;;;7.90;99.90;;;;;;5025651;28;20220;-92
2020/12/19 09:05:59;;;;;;;8.77;5.70;;;7.90;99.90;;;;;;5043760;28;21272;-91
2020/12/19 09:08:31;;;;;;;6.17;3.77;;;7.80;99.90;;;;;;5025909;28;20237;-90
2020/12/19 09:10:57;;;;;;;8.07;4.83;;;7.80;99.90;;;;;;5041788;28;20214;-91
2020/12/19 09:13:23;;;;;;;4.53;4.13;;;7.80;99.90;;;;;;5024533;28;20217;-92
2020/12/19 09:15:50;;;;;;;4.10;2.97;;;7.80;99.90;;;;;;5042325;28;20226;-90
2020/12/19 09:18:31;;;;;;;12.40;5.73;;;8.00;99.90;;;;;;5024463;28;20722;-92
2020/12/19 09:20:58;;;;;;;5.60;4.27;;;8.10;99.90;;;;;;5030966;28;20224;-94
2020/12/19 09:23:27;;;;;;;7.07;4.20;;;8.10;99.90;;;;;;5023869;28;21426;-93
2020/12/19 09:25:58;;;;;;;6.97;4.87;;;8.20;99.90;;;;;;5029617;28;20230;-93
2020/12/19 09:28:24;;;;;;;4.20;3.20;;;8.30;99.90;;;;;;5028210;28;20837;-95
2020/12/19 09:30:52;;;;;;;6.03;4.60;;;8.30;99.90;;;;;;5026900;28;20229;-93
2020/12/19 09:33:18;;;;;;;7.87;4.50;;;8.40;99.90;;;;;;5028375;28;21333;-93
2020/12/19 09:35:45;;;;;;;6.27;4.63;;;8.50;99.90;;;;;;5028338;28;20221;-92
2020/12/19 09:38:11;;;;;;;6.70;4.33;;;8.60;99.90;;;;;;5030720;28;20182;-96
2020/12/19 09:40:38;;;;;;;5.20;3.57;;;8.70;99.90;;;;;;5027778;28;20256;-95
2020/12/19 09:43:05;;;;;;;5.53;4.47;;;8.80;99.90;;;;;;5036474;28;20725;-91
2020/12/19 09:45:31;;;;;;;5.47;3.73;;;8.80;99.90;;;;;;5038640;28;20233;-91
2020/12/19 09:47:58;;;;;;;6.80;3.50;;;8.90;99.90;;;;;;5037764;28;20182;-94
2020/12/19 09:50:25;;;;;;;4.27;3.97;;;9.00;99.90;;;;;;5022317;28;20217;-91
2020/12/19 09:52:52;;;;;;;8.27;4.97;;;9.10;99.90;;;;;;5021259;28;20678;-91
2020/12/19 09:55:18;;;;;;;4.07;3.07;;;9.10;99.90;;;;;;5020525;28;20214;-92
2020/12/19 09:57:44;;;;;;;5.97;5.17;;;9.20;99.90;;;;;;5023457;28;20265;-89
2020/12/19 10:00:12;;;;;;;5.83;3.77;;;9.30;99.90;;;;;;5007604;28;20351;-90
2020/12/19 10:02:38;;;;;;;7.73;4.83;;;9.30;99.90;;;;;;5016729;28;20202;-90
2020/12/19 10:05:05;;;;;;;2.87;2.20;;;9.30;99.90;;;;;;5020709;28;20682;-93
2020/12/19 10:07:30;;;;;;;9.27;3.80;;;9.10;99.90;;;;;;5013978;28;20276;-91
2020/12/19 10:09:56;;;;;;;6.43;4.13;;;9.10;99.90;;;;;;5040131;28;20734;-89
2020/12/19 10:12:22;;;;;;;8.27;5.27;;;9.10;99.90;;;;;;5041186;28;20758;-90
2020/12/19 10:14:48;;;;;;;5.20;3.53;;;9.00;99.90;;;;;;5018491;28;20631;-92
2020/12/19 10:17:14;;;;;;;3.23;2.97;;;9.00;99.90;;;;;;5006405;28;20220;-89
2020/12/19 10:19:40;;;;;;;7.50;3.67;;;9.10;99.90;;;;;;5021553;28;20256;-90
2020/12/19 10:22:06;;;;;;;4.63;3.00;;;9.10;99.90;;;;;;5038694;28;20710;-93
2020/12/19 10:24:31;;;;;;;7.13;4.70;;;9.20;99.90;;;;;;5021932;28;20236;-93
2020/12/19 10:26:57;;;;;;;5.90;4.13;;;9.30;99.90;;;;;;5009966;28;20296;-94
2020/12/19 10:29:23;;;;;;;5.23;3.87;;;9.40;99.90;;;;;;5040281;28;20296;-90
2020/12/19 10:31:49;;;;;;;4.17;3.77;;;9.50;99.90;;;;;;5006550;28;20216;-91
2020/12/19 10:34:15;;;;;;;6.53;4.37;;;9.70;99.90;;;;;;5025239;28;20614;-92
2020/12/19 10:36:41;;;;;;;5.07;3.70;;;9.90;99.90;;;;;;5025525;28;20717;-91
2020/12/19 10:39:07;;;;;;;3.60;2.53;;;9.90;99.90;;;;;;5029266;28;20266;-92
2020/12/19 10:41:36;;;;;;;6.67;4.40;;;10.00;99.90;;;;;;5048467;28;20280;-92
2020/12/19 10:44:01;;;;;;;2.33;2.13;;;10.00;99.90;;;;;;5028000;28;20368;-91
2020/12/19 10:46:28;;;;;;;5.63;3.80;;;10.10;99.90;;;;;;5019902;28;20237;-92
2020/12/19 10:48:57;;;;;;;8.20;4.83;;;10.10;99.90;;;;;;5031741;28;20687;-93
2020/12/19 10:51:28;;;;;;;2.57;2.37;;;10.10;99.90;;;;;;5030173;28;20256;-92
2020/12/19 10:53:56;;;;;;;5.47;2.87;;;10.10;99.90;;;;;;5027979;28;20561;-92
2020/12/19 10:56:23;;;;;;;7.67;4.47;;;10.10;99.90;;;;;;5030336;28;20213;-92
2020/12/19 10:58:51;;;;;;;4.70;4.23;;;10.00;99.90;;;;;;4986462;28;20722;-92
2020/12/19 11:01:20;;;;;;;6.60;4.40;;;10.00;99.90;;;;;;5029779;28;20213;-92
2020/12/19 11:03:46;;;;;;;5.90;4.73;;;10.00;99.90;;;;;;5018806;28;20763;-94
2020/12/19 11:06:21;;;;;;;5.90;3.67;;;9.90;99.90;;;;;;5026616;28;20226;-92
2020/12/19 11:08:47;;;;;;;5.80;3.87;;;10.00;99.90;;;;;;5026756;28;20223;-92
2020/12/19 11:11:13;;;;;;;5.80;4.33;;;9.90;99.90;;;;;;5031600;28;20577;-91
2020/12/19 11:13:40;;;;;;;6.03;4.87;;;9.90;99.90;;;;;;5028601;28;20214;-92
2020/12/19 11:16:08;;;;;;;3.87;3.27;;;9.90;99.90;;;;;;5030117;28;20202;-93
2020/12/19 11:18:34;;;;;;;6.83;5.17;;;9.90;99.90;;;;;;5013632;28;20671;-93
2020/12/19 11:21:03;;;;;;;4.53;3.23;;;10.00;99.90;;;;;;5034795;28;20193;-92
2020/12/19 11:23:29;;;;;;;4.60;3.50;;;10.00;99.90;;;;;;5031268;28;20190;-92
2020/12/19 11:25:54;;;;;;;8.40;5.37;;;10.10;99.90;;;;;;5026372;28;20276;-93
2020/12/19 11:28:20;;;;;;;3.97;3.53;;;10.00;99.90;;;;;;5031793;28;20222;-91
2020/12/19 11:30:46;;;;;;;8.80;3.93;;;10.00;99.90;;;;;;5031500;28;20236;-92
2020/12/19 11:33:13;;;;;;;4.87;3.87;;;10.10;99.90;;;;;;5028199;28;20221;-90
2020/12/19 11:35:38;;;;;;;5.63;3.17;;;10.10;99.90;;;;;;5030988;28;20185;-92
2020/12/19 11:38:06;;;;;;;10.33;4.27;;;10.10;99.90;;;;;;5029768;28;20690;-94
2020/12/19 11:40:32;;;;;;;5.13;4.10;;;10.20;99.90;;;;;;5028654;28;20571;-92
2020/12/19 11:42:58;;;;;;;3.83;3.47;;;10.20;99.90;;;;;;5030133;28;20214;-92
2020/12/19 11:45:24;;;;;;;6.97;4.73;;;10.20;99.90;;;;;;5029522;28;20698;-91
2020/12/19 11:47:50;;;;;;;7.47;4.00;;;10.10;99.90;;;;;;5032430;28;20726;-90
2020/12/19 11:50:15;;;;;;;8.50;5.30;;;10.10;99.90;;;;;;5024302;28;20269;-92
2020/12/19 11:52:41;;;;;;;7.07;4.27;;;10.10;99.90;;;;;;5028930;28;20222;-91
2020/12/19 11:55:10;;;;;;;9.67;4.73;;;10.10;99.90;;;;;;5028358;28;20283;-94
2020/12/19 11:57:37;;;;;;;7.17;3.33;;;10.10;99.90;;;;;;5028113;28;20236;-90
2020/12/19 12:00:04;;;;;;;4.00;3.47;;;10.10;99.90;;;;;;5044270;28;20691;-93
2020/12/19 12:02:30;;;;;;;7.87;4.30;;;10.10;99.90;;;;;;5031021;28;20186;-92
2020/12/19 12:04:56;;;;;;;5.60;4.13;;;10.20;99.90;;;;;;5029592;28;20217;-91
2020/12/19 12:07:22;;;;;;;4.77;3.60;;;10.20;99.90;;;;;;5046214;28;20287;-91
2020/12/19 12:09:51;;;;;;;8.77;4.17;;;10.20;99.90;;;;;;5023418;28;20761;-94
2020/12/19 12:12:16;;;;;;;5.93;4.00;;;10.10;99.90;;;;;;5012890;28;20316;-93
2020/12/19 12:14:42;;;;;;;5.30;3.90;;;10.10;99.90;;;;;;5028514;28;20269;-95
2020/12/19 12:17:08;;;;;;;8.37;4.97;;;10.10;99.90;;;;;;5030123;28;20186;-93
2020/12/19 12:19:34;;;;;;;6.10;4.70;;;10.20;99.90;;;;;;5028201;28;20218;-94
2020/12/19 12:22:00;;;;;;;6.97;4.53;;;10.20;99.90;;;;;;5028401;28;20249;-92
2020/12/19 12:24:25;;;;;;;3.83;3.23;;;10.20;99.90;;;;;;5012393;28;20225;-93
2020/12/19 12:26:51;;;;;;;5.73;4.60;;;10.20;99.90;;;;;;5020835;28;20233;-91
2020/12/19 12:29:17;;;;;;;9.13;5.20;;;10.20;99.90;;;;;;5044903;28;20673;-92
2020/12/19 12:31:43;;;;;;;4.10;3.63;;;10.20;99.90;;;;;;4999917;28;20779;-91
2020/12/19 12:34:11;;;;;;;4.00;2.57;;;10.20;99.90;;;;;;5026889;28;20210;-91
2020/12/19 12:36:37;;;;;;;5.43;4.27;;;10.20;99.90;;;;;;5025212;28;20287;-91
2020/12/19 12:39:03;;;;;;;6.43;4.20;;;10.20;99.90;;;;;;5015725;28;20226;-92
2020/12/19 12:41:29;;;;;;;6.17;5.03;;;10.20;99.90;;;;;;5027035;28;20204;-90
2020/12/19 12:43:55;;;;;;;6.80;4.83;;;10.20;99.90;;;;;;5023123;28;20730;-93
2020/12/19 12:46:21;;;;;;;5.53;4.47;;;10.10;99.90;;;;;;5041992;28;20226;-92
2020/12/19 12:48:48;;;;;;;3.83;2.87;;;10.10;99.90;;;;;;5043113;28;20218;-89
2020/12/19 12:51:16;;;;;;;5.57;4.37;;;10.10;99.90;;;;;;5024489;28;20251;-93
2020/12/19 12:53:46;;;;;;;6.17;4.10;;;10.10;99.90;;;;;;5025334;28;20174;-91
2020/12/19 12:56:13;;;;;;;7.37;4.03;;;10.10;99.90;;;;;;5027389;28;20635;-92
2020/12/19 12:58:39;;;;;;;7.20;4.53;;;10.10;99.90;;;;;;5021065;28;20217;-91